createdAt,value
2023-02-12T00:01:24.474Z,12.85
2023-02-12T00:03:51.610Z,13.82
2023-02-12T00:06:18.401Z,15.43
2023-02-12T00:08:45.214Z,14.07
2023-02-12T00:11:18.327Z,16.73
2023-02-12T00:13:45.515Z,17.30
2023-02-12T00:16:16.261Z,12.88
2023-02-12T00:18:44.240Z,17.00
2023-02-12T00:21:11.633Z,9.80
2023-02-12T00:23:41.035Z,14.63
2023-02-12T00:26:10.152Z,13.55
2023-02-12T00:28:37.272Z,16.98
2023-02-12T00:31:31.623Z,12.80
2023-02-12T00:34:00.052Z,13.20
2023-02-12T00:36:30.035Z,16.95
2023-02-12T00:38:58.184Z,12.90
2023-02-12T00:41:25.918Z,12.57
2023-02-12T00:43:52.893Z,11.68
2023-02-12T00:46:20.184Z,16.35
2023-02-12T00:48:47.030Z,17.95
2023-02-12T00:51:14.641Z,17.10
2023-02-12T00:53:41.467Z,15.88
2023-02-12T00:56:08.598Z,16.20
2023-02-12T00:58:35.768Z,14.27
2023-02-12T01:01:02.831Z,11.80
2023-02-12T01:03:29.543Z,17.80
2023-02-12T01:05:57.752Z,14.77
2023-02-12T01:08:24.757Z,9.27
2023-02-12T01:10:58.507Z,13.20
2023-02-12T01:13:25.903Z,12.88
2023-02-12T01:16:17.171Z,9.95
2023-02-12T01:18:45.375Z,14.85
2023-02-12T01:21:19.070Z,8.45
2023-02-12T01:23:47.116Z,13.23
2023-02-12T01:26:15.241Z,14.98
2023-02-12T01:28:43.388Z,11.05
2023-02-12T01:31:25.527Z,14.02
2023-02-12T01:33:55.092Z,14.48
2023-02-12T01:36:22.714Z,9.25
2023-02-12T01:38:49.974Z,10.98
2023-02-12T01:41:29.223Z,14.15
2023-02-12T01:44:18.627Z,10.32
2023-02-12T01:46:47.619Z,10.38
2023-02-12T01:49:37.918Z,12.23
2023-02-12T01:52:15.876Z,11.65
2023-02-12T01:54:43.607Z,11.98
2023-02-12T01:57:12.966Z,16.38
2023-02-12T01:59:42.306Z,11.75
2023-02-12T02:02:09.521Z,13.07
2023-02-12T02:04:50.908Z,11.10
2023-02-12T02:07:17.783Z,13.32
2023-02-12T02:09:44.761Z,15.73
2023-02-12T02:12:30.193Z,10.88
2023-02-12T02:15:00.045Z,14.07
2023-02-12T02:17:32.872Z,12.05
2023-02-12T02:20:27.496Z,14.07
2023-02-12T02:23:20.837Z,12.48
2023-02-12T02:26:18.328Z,13.10
2023-02-12T02:29:17.960Z,12.85
2023-02-12T02:31:53.631Z,12.07
2023-02-12T02:34:34.502Z,13.93
2023-02-12T02:37:19.675Z,17.67
2023-02-12T02:40:00.410Z,17.40
2023-02-12T02:42:36.828Z,15.73
2023-02-12T02:45:13.073Z,18.73
2023-02-12T02:47:55.831Z,19.90
2023-02-12T02:50:26.018Z,14.18
2023-02-12T02:53:02.681Z,16.00
2023-02-12T02:55:36.870Z,14.57
2023-02-12T02:58:14.671Z,16.33
2023-02-12T03:00:54.000Z,18.15
2023-02-12T03:03:29.203Z,17.45
2023-02-12T03:06:02.701Z,25.05
2023-02-12T03:08:35.655Z,16.50
2023-02-12T03:11:11.559Z,22.92
2023-02-12T03:13:46.407Z,20.23
2023-02-12T03:16:29.253Z,16.27
2023-02-12T03:19:06.744Z,18.45
2023-02-12T03:21:42.085Z,21.80
2023-02-12T03:24:28.845Z,16.75
2023-02-12T03:27:07.381Z,24.33
2023-02-12T03:29:34.417Z,20.75
2023-02-12T03:32:01.015Z,21.92
2023-02-12T03:35:07.229Z,21.60
2023-02-12T03:37:39.382Z,16.63
2023-02-12T03:40:19.503Z,18.73
2023-02-12T03:43:18.469Z,18.85
2023-02-12T03:45:51.946Z,14.35
2023-02-12T03:48:27.505Z,17.52
2023-02-12T03:50:59.623Z,17.13
2023-02-12T03:53:28.737Z,16.52
2023-02-12T03:56:10.854Z,16.55
2023-02-12T03:58:39.166Z,15.20
2023-02-12T04:01:06.339Z,13.77
2023-02-12T04:03:33.253Z,14.30
2023-02-12T04:06:00.023Z,13.27
2023-02-12T04:08:27.977Z,15.18
2023-02-12T04:11:30.144Z,15.63
2023-02-12T04:14:25.306Z,13.95
2023-02-12T04:16:54.628Z,13.07
2023-02-12T04:19:34.945Z,13.85
2023-02-12T04:22:26.622Z,12.93
2023-02-12T04:25:22.049Z,13.90
2023-02-12T04:28:21.300Z,15.45
2023-02-12T04:31:24.759Z,13.35
2023-02-12T04:34:08.729Z,15.23
2023-02-12T04:36:58.331Z,13.98
2023-02-12T04:39:31.517Z,11.35
2023-02-12T04:42:02.008Z,11.85
2023-02-12T04:44:33.659Z,12.88
2023-02-12T04:47:00.833Z,10.10
2023-02-12T04:49:28.050Z,14.43
2023-02-12T04:51:55.009Z,11.55
2023-02-12T04:54:23.541Z,10.88
2023-02-12T04:56:51.331Z,13.88
2023-02-12T04:59:18.133Z,12.10
2023-02-12T05:01:45.622Z,14.85
2023-02-12T05:04:15.091Z,14.48
2023-02-12T05:06:43.396Z,13.10
2023-02-12T05:09:14.193Z,12.25
2023-02-12T05:11:40.958Z,13.23
2023-02-12T05:14:07.966Z,9.43
2023-02-12T05:16:34.824Z,8.98
2023-02-12T05:19:01.749Z,11.38
2023-02-12T05:21:28.680Z,11.52
2023-02-12T05:23:55.431Z,13.70
2023-02-12T05:26:23.159Z,10.55
2023-02-12T05:28:49.828Z,11.98
2023-02-12T05:31:21.306Z,13.60
2023-02-12T05:36:18.930Z,11.10
2023-02-12T05:38:45.673Z,12.82
2023-02-12T05:41:17.912Z,13.23
2023-02-12T05:43:49.471Z,11.10
2023-02-12T05:46:18.046Z,11.70
2023-02-12T05:48:45.132Z,14.15
2023-02-12T05:51:15.325Z,12.30
2023-02-12T05:53:42.665Z,11.95
2023-02-12T05:56:16.781Z,15.73
2023-02-12T05:58:47.969Z,9.27
2023-02-12T06:01:18.718Z,15.65
2023-02-12T06:03:45.732Z,14.82
2023-02-12T06:06:12.842Z,11.00
2023-02-12T06:08:40.051Z,8.55
2023-02-12T06:11:10.787Z,8.27
2023-02-12T06:13:37.500Z,10.90
2023-02-12T06:16:05.140Z,9.02
2023-02-12T06:18:31.976Z,5.97
2023-02-12T06:20:58.723Z,9.95
2023-02-12T06:23:25.804Z,13.00
2023-02-12T06:25:57.076Z,11.65
2023-02-12T06:28:24.216Z,5.53
2023-02-12T06:30:51.267Z,7.13
2023-02-12T06:33:18.146Z,9.85
2023-02-12T06:35:44.978Z,6.95
2023-02-12T06:38:11.749Z,8.90
2023-02-12T06:40:38.508Z,8.48
2023-02-12T06:43:05.525Z,11.98
2023-02-12T06:45:33.655Z,7.85
2023-02-12T06:48:00.527Z,7.90
2023-02-12T06:50:27.548Z,7.05
2023-02-12T06:52:54.263Z,5.80
2023-02-12T06:55:21.019Z,9.07
2023-02-12T06:57:47.785Z,8.25
2023-02-12T07:00:14.750Z,7.20
2023-02-12T07:02:41.583Z,6.97
2023-02-12T07:05:08.507Z,7.88
2023-02-12T07:07:35.379Z,11.20
2023-02-12T07:10:02.296Z,7.85
2023-02-12T07:12:29.164Z,6.15
2023-02-12T07:14:55.924Z,7.60
2023-02-12T07:17:22.707Z,7.53
2023-02-12T07:19:49.473Z,8.65
2023-02-12T07:22:16.415Z,7.95
2023-02-12T07:24:43.536Z,8.65
2023-02-12T07:27:10.287Z,8.57
2023-02-12T07:29:37.068Z,12.77
2023-02-12T07:32:03.984Z,8.45
2023-02-12T07:34:30.743Z,5.68
2023-02-12T07:36:57.610Z,9.63
2023-02-12T07:39:24.317Z,11.10
2023-02-12T07:41:51.143Z,5.50
2023-02-12T07:44:18.143Z,7.28
2023-02-12T07:46:48.619Z,6.75
2023-02-12T07:49:19.791Z,6.97
2023-02-12T07:51:47.070Z,5.75
2023-02-12T07:54:14.551Z,8.88
2023-02-12T07:56:43.075Z,5.13
2023-02-12T07:59:14.616Z,6.07
2023-02-12T08:01:52.129Z,6.38
2023-02-12T08:04:22.191Z,6.03
2023-02-12T08:06:51.563Z,7.60
2023-02-12T08:09:21.610Z,5.35
2023-02-12T08:11:49.197Z,6.88
2023-02-12T08:14:18.795Z,5.85
2023-02-12T08:16:47.344Z,6.85
2023-02-12T08:19:19.796Z,6.68
2023-02-12T08:21:52.857Z,5.30
2023-02-12T08:26:49.045Z,7.53
2023-02-12T08:29:22.036Z,8.88
2023-02-12T08:31:50.667Z,9.50
2023-02-12T08:34:26.540Z,7.47
2023-02-12T08:36:54.585Z,7.47
2023-02-12T08:39:22.887Z,7.70
2023-02-12T08:41:50.513Z,7.80
2023-02-12T08:44:17.899Z,6.80
2023-02-12T08:46:48.023Z,9.02
2023-02-12T08:49:20.253Z,9.38
2023-02-12T08:51:53.052Z,12.60
2023-02-12T08:54:23.909Z,8.00
2023-02-12T08:56:51.243Z,11.68
2023-02-12T08:59:18.544Z,11.98
2023-02-12T09:01:45.581Z,7.65
2023-02-12T09:04:19.332Z,12.20
2023-02-12T09:06:47.263Z,12.43
2023-02-12T09:09:15.128Z,6.60
2023-02-12T09:11:42.628Z,8.55
2023-02-12T09:14:13.208Z,9.40
2023-02-12T09:16:40.587Z,8.73
2023-02-12T09:19:11.387Z,7.20
2023-02-12T09:21:38.129Z,9.63
2023-02-12T09:24:04.869Z,8.57
2023-02-12T09:26:31.720Z,8.10
2023-02-12T09:28:59.014Z,9.43
2023-02-12T09:31:27.848Z,9.65
2023-02-12T09:33:58.236Z,8.73
2023-02-12T09:36:25.489Z,10.15
2023-02-12T09:38:54.174Z,6.45
2023-02-12T09:41:51.495Z,9.63
2023-02-12T09:44:27.263Z,7.88
2023-02-12T09:47:03.642Z,10.27
2023-02-12T09:50:04.835Z,9.38
2023-02-12T09:52:31.713Z,7.95
2023-02-12T09:54:59.017Z,8.52
2023-02-12T09:57:36.152Z,9.40
2023-02-12T10:00:15.794Z,10.93
2023-02-12T10:02:42.624Z,11.05
2023-02-12T10:05:29.090Z,10.95
2023-02-12T10:08:24.851Z,9.35
2023-02-12T10:11:11.219Z,6.28
2023-02-12T10:13:59.957Z,9.00
2023-02-12T10:16:50.528Z,5.20
2023-02-12T10:22:28.961Z,5.75
2023-02-12T10:25:03.414Z,7.13
2023-02-12T10:27:46.733Z,8.50
2023-02-12T10:30:21.279Z,8.15
2023-02-12T10:32:51.652Z,7.97
2023-02-12T10:35:21.100Z,7.60
2023-02-12T10:38:17.082Z,9.85
2023-02-12T10:40:45.331Z,8.02
2023-02-12T10:43:15.160Z,7.53
2023-02-12T10:45:44.062Z,7.25
2023-02-12T10:48:17.903Z,8.35
2023-02-12T10:51:08.818Z,9.00
2023-02-12T10:53:39.858Z,7.93
2023-02-12T10:56:11.384Z,9.70
2023-02-12T10:58:50.492Z,7.22
2023-02-12T11:01:27.222Z,6.00
2023-02-12T11:03:55.617Z,10.00
2023-02-12T11:06:26.077Z,8.15
2023-02-12T11:08:53.846Z,10.93
2023-02-12T11:11:31.137Z,9.55
2023-02-12T11:14:04.089Z,8.43
2023-02-12T11:16:43.275Z,11.32
2023-02-12T11:19:21.611Z,9.00
2023-02-12T11:21:49.534Z,9.57
2023-02-12T11:24:32.658Z,10.45
2023-02-12T11:27:22.300Z,9.52
2023-02-12T11:30:12.516Z,8.77
2023-02-12T11:32:39.629Z,8.80
2023-02-12T11:35:07.506Z,8.98
2023-02-12T11:37:39.679Z,10.88
2023-02-12T11:40:07.076Z,7.90
2023-02-12T11:42:37.691Z,9.10
2023-02-12T11:45:05.058Z,9.95
2023-02-12T11:47:40.293Z,8.57
2023-02-12T11:50:22.249Z,9.20
2023-02-12T11:52:52.173Z,8.93
2023-02-12T11:55:26.602Z,9.93
2023-02-12T11:58:01.775Z,8.23
2023-02-12T12:00:38.313Z,7.88
2023-02-12T12:03:17.378Z,8.32
2023-02-12T12:06:16.651Z,9.38
2023-02-12T12:09:02.364Z,7.88
2023-02-12T12:12:09.032Z,6.97
2023-02-12T12:15:03.498Z,8.73
2023-02-12T12:18:34.834Z,7.60
2023-02-12T12:21:15.267Z,9.68
2023-02-12T12:23:52.759Z,6.97
2023-02-12T12:26:26.020Z,8.05
2023-02-12T12:29:15.396Z,7.63
2023-02-12T12:31:49.211Z,6.95
2023-02-12T12:34:24.387Z,7.18
2023-02-12T12:37:07.397Z,7.18
2023-02-12T12:39:36.357Z,9.88
2023-02-12T12:42:31.323Z,8.07
2023-02-12T12:45:25.419Z,7.10
2023-02-12T12:47:52.153Z,7.28
2023-02-12T12:50:40.836Z,6.50
2023-02-12T12:53:38.675Z,7.88
2023-02-12T12:56:20.715Z,7.38
2023-02-12T12:59:24.543Z,7.43
2023-02-12T13:02:16.326Z,8.75
2023-02-12T13:05:10.372Z,9.52
2023-02-12T13:08:00.216Z,9.95
2023-02-12T13:10:34.141Z,11.88
2023-02-12T13:13:19.475Z,12.65
2023-02-12T13:15:56.071Z,9.13
2023-02-12T13:19:01.285Z,8.45
2023-02-12T13:21:37.405Z,9.00
2023-02-12T13:24:13.584Z,8.90
2023-02-12T13:26:54.991Z,8.63
2023-02-12T13:29:57.411Z,9.18
2023-02-12T13:32:30.216Z,8.15
2023-02-12T13:34:58.984Z,10.00
2023-02-12T13:37:33.401Z,7.72
2023-02-12T13:40:05.481Z,12.43
2023-02-12T13:42:59.592Z,11.60
2023-02-12T13:45:59.952Z,10.80
2023-02-12T13:48:48.467Z,8.40
2023-02-12T13:51:30.872Z,8.52
2023-02-12T13:54:12.678Z,9.07
2023-02-12T13:56:46.799Z,9.45
2023-02-12T13:59:32.194Z,8.05
2023-02-12T14:02:46.032Z,10.07
2023-02-12T14:05:28.437Z,10.30
2023-02-12T14:07:55.184Z,8.82
2023-02-12T14:10:35.076Z,6.00
2023-02-12T14:13:16.337Z,8.13
2023-02-12T14:15:51.259Z,10.57
2023-02-12T14:18:31.862Z,9.23
2023-02-12T14:21:19.311Z,11.27
2023-02-12T14:23:47.145Z,9.25
2023-02-12T14:26:16.399Z,9.93
2023-02-12T14:29:01.966Z,10.40
2023-02-12T14:31:34.455Z,12.50
2023-02-12T14:34:11.646Z,12.93
2023-02-12T14:36:42.755Z,10.18
2023-02-12T14:39:24.581Z,11.35
2023-02-12T14:42:15.510Z,15.15
2023-02-12T14:44:47.116Z,10.77
2023-02-12T14:50:00.091Z,12.48
2023-02-12T14:52:33.956Z,13.52
2023-02-12T14:55:04.767Z,14.63
2023-02-12T14:57:41.208Z,12.73
2023-02-12T15:00:26.783Z,12.60
2023-02-12T15:03:14.319Z,12.25
2023-02-12T15:05:55.152Z,10.38
2023-02-12T15:08:35.737Z,14.50
2023-02-12T15:11:35.679Z,10.95
2023-02-12T15:14:27.453Z,10.38
2023-02-12T15:17:00.352Z,9.80
2023-02-12T15:19:27.003Z,14.48
2023-02-12T15:21:54.550Z,11.18
2023-02-12T15:24:23.906Z,11.50
2023-02-12T15:26:53.356Z,9.55
2023-02-12T15:29:45.209Z,9.75
2023-02-12T15:32:28.515Z,9.73
2023-02-12T15:34:56.591Z,9.75
2023-02-12T15:37:30.378Z,7.18
2023-02-12T15:40:01.560Z,10.10
2023-02-12T15:42:33.216Z,7.63
2023-02-12T15:45:22.087Z,8.50
2023-02-12T15:48:09.123Z,11.30
2023-02-12T15:50:51.300Z,11.32
2023-02-12T15:53:18.361Z,5.85
2023-02-12T15:55:47.741Z,8.38
2023-02-12T15:58:41.904Z,7.43
2023-02-12T16:01:08.752Z,10.80
2023-02-12T16:03:38.458Z,10.35
2023-02-12T16:06:11.550Z,10.90
2023-02-12T16:08:39.729Z,6.82
2023-02-12T16:11:17.171Z,8.27
2023-02-12T16:13:53.389Z,8.13
2023-02-12T16:16:29.951Z,9.85
2023-02-12T16:19:07.348Z,11.73
2023-02-12T16:21:37.772Z,7.45
2023-02-12T16:24:19.396Z,9.77
2023-02-12T16:26:46.737Z,12.00
2023-02-12T16:29:16.951Z,12.88
2023-02-12T16:31:59.833Z,12.40
2023-02-12T16:34:32.540Z,14.00
2023-02-12T16:36:59.445Z,13.93
2023-02-12T16:40:07.672Z,10.95
2023-02-12T16:42:34.451Z,10.27
2023-02-12T16:45:01.462Z,12.65
2023-02-12T16:47:28.425Z,9.02
2023-02-12T16:49:59.143Z,10.05
2023-02-12T16:52:39.624Z,9.13
2023-02-12T16:55:14.365Z,7.05
2023-02-12T16:57:41.222Z,7.13
2023-02-12T17:00:10.252Z,9.75
2023-02-12T17:02:37.428Z,9.18
2023-02-12T17:05:09.252Z,9.45
2023-02-12T17:07:36.045Z,8.85
2023-02-12T17:10:03.444Z,9.20
2023-02-12T17:12:30.321Z,9.23
2023-02-12T17:14:57.211Z,6.15
2023-02-12T17:17:23.947Z,5.88
2023-02-12T17:19:50.742Z,4.78
2023-02-12T17:22:22.346Z,10.45
2023-02-12T17:24:51.489Z,5.45
2023-02-12T17:27:19.846Z,5.45
2023-02-12T17:29:46.743Z,6.40
2023-02-12T17:32:13.625Z,7.22
2023-02-12T17:34:48.432Z,6.90
2023-02-12T17:37:17.219Z,5.72
2023-02-12T17:39:44.388Z,6.32
2023-02-12T17:42:12.153Z,6.70
2023-02-12T17:44:40.104Z,7.18
2023-02-12T17:47:07.161Z,5.28
2023-02-12T17:49:35.616Z,5.68
2023-02-12T17:52:04.689Z,5.82
2023-02-12T17:54:32.560Z,5.90
2023-02-12T17:56:59.533Z,5.85
2023-02-12T17:59:26.494Z,9.02
2023-02-12T18:01:53.396Z,7.90
2023-02-12T18:04:20.337Z,7.18
2023-02-12T18:06:47.099Z,8.23
2023-02-12T18:09:14.036Z,9.95
2023-02-12T18:11:42.454Z,8.43
2023-02-12T18:14:11.265Z,10.52
2023-02-12T18:16:37.942Z,9.82
2023-02-12T18:19:06.832Z,10.20
2023-02-12T18:21:35.038Z,10.30
2023-02-12T18:24:02.208Z,11.63
2023-02-12T18:26:29.031Z,12.60
2023-02-12T18:28:58.433Z,11.45
2023-02-12T18:31:26.415Z,10.50
2023-02-12T18:33:53.719Z,12.52
2023-02-12T18:36:21.796Z,11.50
2023-02-12T18:38:50.498Z,13.02
2023-02-12T18:41:20.912Z,9.57
2023-02-12T18:43:47.901Z,12.75
2023-02-12T18:46:18.016Z,11.27
2023-02-12T18:48:45.490Z,14.02
2023-02-12T18:51:18.063Z,11.32
2023-02-12T18:53:46.412Z,12.05
2023-02-12T18:56:13.788Z,11.80
2023-02-12T18:58:40.853Z,12.68
2023-02-12T19:01:14.142Z,13.52
2023-02-12T19:03:41.395Z,12.13
2023-02-12T19:06:08.429Z,13.60
2023-02-12T19:08:35.398Z,13.88
2023-02-12T19:11:02.310Z,13.60
2023-02-12T19:13:29.064Z,12.25
2023-02-12T19:15:57.056Z,12.90
2023-02-12T19:18:24.660Z,11.93
2023-02-12T19:20:51.672Z,12.30
2023-02-12T19:23:18.770Z,13.32
2023-02-12T19:25:45.751Z,13.10
2023-02-12T19:28:13.330Z,12.45
2023-02-12T19:30:41.146Z,12.07
2023-02-12T19:33:08.860Z,12.73
2023-02-12T19:35:35.695Z,15.35
2023-02-12T19:38:02.937Z,13.30
2023-02-12T19:40:29.651Z,14.13
2023-02-12T19:42:56.474Z,13.63
2023-02-12T19:45:23.300Z,12.32
2023-02-12T19:47:51.722Z,12.48
2023-02-12T19:50:18.624Z,12.98
2023-02-12T19:52:45.406Z,11.98
2023-02-12T19:55:12.139Z,13.27
2023-02-12T19:57:39.013Z,11.57
2023-02-12T20:00:06.347Z,13.05
2023-02-12T20:02:33.689Z,12.63
2023-02-12T20:05:00.516Z,11.82
2023-02-12T20:07:27.237Z,13.13
2023-02-12T20:09:54.078Z,13.50
2023-02-12T20:12:20.909Z,11.25
2023-02-12T20:14:47.564Z,11.15
2023-02-12T20:17:14.627Z,10.80
2023-02-12T20:19:41.364Z,10.43
2023-02-12T20:22:08.310Z,9.50
2023-02-12T20:24:35.319Z,10.45
2023-02-12T20:27:02.864Z,9.48
2023-02-12T20:29:29.843Z,9.18
2023-02-12T20:31:56.894Z,7.55
2023-02-12T20:34:23.772Z,8.55
2023-02-12T20:36:50.566Z,8.93
2023-02-12T20:39:19.352Z,8.30
2023-02-12T20:41:46.699Z,7.90
2023-02-12T20:44:18.789Z,6.95
2023-02-12T20:46:54.327Z,6.28
2023-02-12T20:49:23.452Z,6.22
2023-02-12T20:51:50.438Z,7.05
2023-02-12T20:54:17.400Z,7.20
2023-02-12T20:56:44.260Z,6.78
2023-02-12T20:59:12.076Z,10.30
2023-02-12T21:01:41.059Z,5.60
2023-02-12T21:04:14.838Z,6.25
2023-02-12T21:06:41.882Z,5.72
2023-02-12T21:09:10.881Z,6.25
2023-02-12T21:11:39.953Z,6.68
2023-02-12T21:14:21.243Z,7.63
2023-02-12T21:16:49.684Z,6.40
2023-02-12T21:19:17.837Z,7.05
2023-02-12T21:21:45.489Z,6.20
2023-02-12T21:24:18.661Z,7.95
2023-02-12T21:26:45.735Z,7.43
2023-02-12T21:29:12.688Z,6.57
2023-02-12T21:31:42.772Z,6.70
2023-02-12T21:34:14.276Z,6.18
2023-02-12T21:36:42.376Z,7.88
2023-02-12T21:39:11.741Z,8.00
2023-02-12T21:41:40.339Z,8.00
2023-02-12T21:44:11.796Z,8.05
2023-02-12T21:46:38.938Z,7.93
2023-02-12T21:49:06.059Z,9.07
2023-02-12T21:51:44.466Z,9.88
2023-02-12T21:54:15.464Z,10.73
2023-02-12T21:56:44.262Z,7.85
2023-02-12T21:59:11.813Z,13.10
2023-02-12T22:01:43.016Z,8.50
2023-02-12T22:04:09.991Z,10.63
2023-02-12T22:06:39.453Z,10.45
2023-02-12T22:09:08.345Z,9.95
2023-02-12T22:11:37.277Z,10.30
2023-02-12T22:14:04.503Z,9.88
2023-02-12T22:16:31.567Z,10.07
2023-02-12T22:19:00.363Z,11.35
2023-02-12T22:21:29.574Z,11.35
2023-02-12T22:23:57.364Z,9.88
2023-02-12T22:26:26.764Z,12.43
2023-02-12T22:29:03.090Z,9.70
2023-02-12T22:31:33.019Z,11.35
2023-02-12T22:34:03.113Z,10.10
2023-02-12T22:36:30.450Z,9.60
2023-02-12T22:38:59.626Z,12.63
2023-02-12T22:41:28.000Z,11.00
2023-02-12T22:43:54.999Z,12.55
2023-02-12T22:46:22.151Z,9.70
2023-02-12T22:48:48.926Z,9.90
2023-02-12T22:51:24.561Z,10.45
2023-02-12T22:53:51.567Z,11.15
2023-02-12T22:56:18.846Z,11.05
2023-02-12T22:58:46.161Z,11.13
2023-02-12T23:01:18.670Z,10.52
2023-02-12T23:03:45.948Z,10.00
2023-02-12T23:06:18.098Z,11.02
2023-02-12T23:08:45.000Z,10.52
2023-02-12T23:11:12.167Z,9.30
2023-02-12T23:13:39.354Z,9.98
2023-02-12T23:16:06.326Z,9.25
2023-02-12T23:18:33.861Z,9.48
2023-02-12T23:21:01.329Z,9.70
2023-02-12T23:23:28.375Z,9.10
2023-02-12T23:25:55.686Z,10.38
2023-02-12T23:28:22.794Z,9.70
2023-02-12T23:30:50.690Z,11.07
2023-02-12T23:33:19.161Z,9.85
2023-02-12T23:35:47.196Z,10.40
2023-02-12T23:38:15.086Z,11.30
2023-02-12T23:40:42.354Z,12.13
2023-02-12T23:43:09.422Z,10.82
2023-02-12T23:45:36.080Z,11.88
2023-02-12T23:48:02.898Z,11.52
2023-02-12T23:50:29.605Z,13.38
2023-02-12T23:52:56.357Z,10.90
2023-02-12T23:55:23.124Z,10.90
2023-02-12T23:57:50.556Z,13.70
